sensor_id;sensor_type;location;lat;lon;timestamp;P1;durP1;ratioP1;P2;durP2;ratioP2
20251;SDS011;10284;58.364;15.550;2022-09-29T00:00:23;5.75;;;4.53;;
20251;SDS011;10284;58.364;15.550;2022-09-29T00:02:49;6.75;;;4.45;;
20251;SDS011;10284;58.364;15.550;2022-09-29T00:05:14;8.00;;;4.43;;
20251;SDS011;10284;58.364;15.550;2022-09-29T00:07:39;6.85;;;4.22;;
20251;SDS011;10284;58.364;15.550;2022-09-29T00:10:05;11.27;;;4.60;;
20251;SDS011;10284;58.364;15.550;2022-09-29T00:12:31;6.75;;;4.10;;
20251;SDS011;10284;58.364;15.550;2022-09-29T00:14:56;6.70;;;4.18;;
20251;SDS011;10284;58.364;15.550;2022-09-29T00:17:21;7.13;;;3.80;;
20251;SDS011;10284;58.364;15.550;2022-09-29T00:19:47;6.88;;;3.95;;
20251;SDS011;10284;58.364;15.550;2022-09-29T00:22:12;5.50;;;4.00;;
20251;SDS011;10284;58.364;15.550;2022-09-29T00:24:37;4.93;;;3.95;;
20251;SDS011;10284;58.364;15.550;2022-09-29T00:27:03;5.20;;;3.78;;
20251;SDS011;10284;58.364;15.550;2022-09-29T00:29:28;6.15;;;4.15;;
20251;SDS011;10284;58.364;15.550;2022-09-29T00:31:54;4.80;;;3.85;;
20251;SDS011;10284;58.364;15.550;2022-09-29T00:34:19;7.50;;;4.00;;
20251;SDS011;10284;58.364;15.550;2022-09-29T00:36:44;6.80;;;4.07;;
20251;SDS011;10284;58.364;15.550;2022-09-29T00:39:10;6.78;;;4.28;;
20251;SDS011;10284;58.364;15.550;2022-09-29T00:41:37;8.15;;;3.90;;
20251;SDS011;10284;58.364;15.550;2022-09-29T00:44:50;8.30;;;4.07;;
20251;SDS011;10284;58.364;15.550;2022-09-29T00:47:11;4.63;;;3.30;;
20251;SDS011;10284;58.364;15.550;2022-09-29T00:49:40;6.85;;;3.63;;
20251;SDS011;10284;58.364;15.550;2022-09-29T00:52:09;5.35;;;3.50;;
20251;SDS011;10284;58.364;15.550;2022-09-29T00:54:42;7.07;;;4.22;;
20251;SDS011;10284;58.364;15.550;2022-09-29T00:57:10;7.85;;;4.38;;
20251;SDS011;10284;58.364;15.550;2022-09-29T01:02:16;8.18;;;3.72;;
20251;SDS011;10284;58.364;15.550;2022-09-29T01:04:44;6.30;;;4.10;;
20251;SDS011;10284;58.364;15.550;2022-09-29T01:07:11;5.80;;;4.00;;
20251;SDS011;10284;58.364;15.550;2022-09-29T01:09:37;4.40;;;3.80;;
20251;SDS011;10284;58.364;15.550;2022-09-29T01:12:04;7.32;;;4.00;;
20251;SDS011;10284;58.364;15.550;2022-09-29T01:14:30;5.18;;;3.65;;
20251;SDS011;10284;58.364;15.550;2022-09-29T01:16:56;4.97;;;3.85;;
20251;SDS011;10284;58.364;15.550;2022-09-29T01:19:26;6.97;;;3.88;;
20251;SDS011;10284;58.364;15.550;2022-09-29T01:22:03;5.65;;;3.83;;
20251;SDS011;10284;58.364;15.550;2022-09-29T01:24:40;5.85;;;4.13;;
20251;SDS011;10284;58.364;15.550;2022-09-29T01:27:37;6.43;;;4.38;;
20251;SDS011;10284;58.364;15.550;2022-09-29T01:30:45;7.20;;;4.55;;
20251;SDS011;10284;58.364;15.550;2022-09-29T01:33:53;6.75;;;4.60;;
20251;SDS011;10284;58.364;15.550;2022-09-29T01:36:37;9.85;;;5.20;;
20251;SDS011;10284;58.364;15.550;2022-09-29T01:39:12;6.93;;;4.88;;
20251;SDS011;10284;58.364;15.550;2022-09-29T01:44:51;8.07;;;5.77;;
20251;SDS011;10284;58.364;15.550;2022-09-29T01:49:58;9.95;;;5.57;;
20251;SDS011;10284;58.364;15.550;2022-09-29T01:52:28;7.60;;;5.70;;
20251;SDS011;10284;58.364;15.550;2022-09-29T01:54:57;11.25;;;5.85;;
20251;SDS011;10284;58.364;15.550;2022-09-29T01:57:32;9.40;;;5.72;;
20251;SDS011;10284;58.364;15.550;2022-09-29T02:00:10;11.85;;;5.82;;
20251;SDS011;10284;58.364;15.550;2022-09-29T02:02:51;8.43;;;5.47;;
20251;SDS011;10284;58.364;15.550;2022-09-29T02:05:27;9.60;;;5.88;;
20251;SDS011;10284;58.364;15.550;2022-09-29T02:08:01;8.15;;;5.25;;
20251;SDS011;10284;58.364;15.550;2022-09-29T02:10:33;8.23;;;5.68;;
20251;SDS011;10284;58.364;15.550;2022-09-29T02:13:04;7.95;;;5.53;;
20251;SDS011;10284;58.364;15.550;2022-09-29T02:15:31;11.85;;;6.22;;
20251;SDS011;10284;58.364;15.550;2022-09-29T02:18:00;8.40;;;5.55;;
20251;SDS011;10284;58.364;15.550;2022-09-29T02:20:27;9.35;;;5.55;;
20251;SDS011;10284;58.364;15.550;2022-09-29T02:22:52;7.55;;;5.25;;
20251;SDS011;10284;58.364;15.550;2022-09-29T02:25:19;6.88;;;4.95;;
20251;SDS011;10284;58.364;15.550;2022-09-29T02:27:46;7.63;;;5.35;;
20251;SDS011;10284;58.364;15.550;2022-09-29T02:30:12;7.95;;;5.35;;
20251;SDS011;10284;58.364;15.550;2022-09-29T02:32:38;6.63;;;5.40;;
20251;SDS011;10284;58.364;15.550;2022-09-29T02:35:04;7.50;;;4.65;;
20251;SDS011;10284;58.364;15.550;2022-09-29T02:37:37;9.02;;;5.47;;
20251;SDS011;10284;58.364;15.550;2022-09-29T02:45:45;7.88;;;4.68;;
20251;SDS011;10284;58.364;15.550;2022-09-29T03:01:14;11.25;;;5.50;;
20251;SDS011;10284;58.364;15.550;2022-09-29T03:03:40;8.18;;;5.78;;
20251;SDS011;10284;58.364;15.550;2022-09-29T03:06:06;9.75;;;5.10;;
20251;SDS011;10284;58.364;15.550;2022-09-29T03:08:31;6.82;;;4.60;;
20251;SDS011;10284;58.364;15.550;2022-09-29T03:10:57;8.05;;;5.30;;
20251;SDS011;10284;58.364;15.550;2022-09-29T03:13:23;10.73;;;4.95;;
20251;SDS011;10284;58.364;15.550;2022-09-29T03:15:49;9.20;;;5.25;;
20251;SDS011;10284;58.364;15.550;2022-09-29T03:18:14;7.15;;;4.68;;
20251;SDS011;10284;58.364;15.550;2022-09-29T03:20:40;7.72;;;5.20;;
20251;SDS011;10284;58.364;15.550;2022-09-29T03:23:05;6.65;;;4.70;;
20251;SDS011;10284;58.364;15.550;2022-09-29T03:25:31;8.32;;;5.20;;
20251;SDS011;10284;58.364;15.550;2022-09-29T03:27:56;6.43;;;4.50;;
20251;SDS011;10284;58.364;15.550;2022-09-29T03:30:22;13.52;;;4.85;;
20251;SDS011;10284;58.364;15.550;2022-09-29T03:32:47;8.30;;;4.72;;
20251;SDS011;10284;58.364;15.550;2022-09-29T03:35:13;11.25;;;5.07;;
20251;SDS011;10284;58.364;15.550;2022-09-29T03:37:38;7.40;;;4.50;;
20251;SDS011;10284;58.364;15.550;2022-09-29T03:40:04;5.53;;;4.38;;
20251;SDS011;10284;58.364;15.550;2022-09-29T03:42:30;6.28;;;4.57;;
20251;SDS011;10284;58.364;15.550;2022-09-29T03:44:56;7.00;;;4.20;;
20251;SDS011;10284;58.364;15.550;2022-09-29T03:47:22;7.15;;;4.30;;
20251;SDS011;10284;58.364;15.550;2022-09-29T03:49:47;7.35;;;4.35;;
20251;SDS011;10284;58.364;15.550;2022-09-29T03:52:13;5.97;;;4.18;;
20251;SDS011;10284;58.364;15.550;2022-09-29T03:54:38;9.10;;;4.55;;
20251;SDS011;10284;58.364;15.550;2022-09-29T03:57:04;6.22;;;4.32;;
20251;SDS011;10284;58.364;15.550;2022-09-29T03:59:29;8.40;;;4.22;;
20251;SDS011;10284;58.364;15.550;2022-09-29T04:01:55;6.53;;;4.03;;
20251;SDS011;10284;58.364;15.550;2022-09-29T04:04:20;6.28;;;4.40;;
20251;SDS011;10284;58.364;15.550;2022-09-29T04:06:46;5.93;;;4.10;;
20251;SDS011;10284;58.364;15.550;2022-09-29T04:09:11;9.60;;;4.80;;
20251;SDS011;10284;58.364;15.550;2022-09-29T04:11:36;6.38;;;3.95;;
20251;SDS011;10284;58.364;15.550;2022-09-29T04:14:02;7.05;;;4.18;;
20251;SDS011;10284;58.364;15.550;2022-09-29T04:16:28;5.55;;;3.97;;
20251;SDS011;10284;58.364;15.550;2022-09-29T04:18:53;5.75;;;4.13;;
20251;SDS011;10284;58.364;15.550;2022-09-29T04:21:19;5.18;;;3.45;;
20251;SDS011;10284;58.364;15.550;2022-09-29T04:23:44;5.35;;;3.53;;
20251;SDS011;10284;58.364;15.550;2022-09-29T04:26:10;8.65;;;3.40;;
20251;SDS011;10284;58.364;15.550;2022-09-29T04:28:36;6.70;;;3.22;;
20251;SDS011;10284;58.364;15.550;2022-09-29T04:31:02;5.28;;;3.80;;
20251;SDS011;10284;58.364;15.550;2022-09-29T04:33:27;5.13;;;3.25;;
20251;SDS011;10284;58.364;15.550;2022-09-29T04:35:54;4.35;;;3.10;;
20251;SDS011;10284;58.364;15.550;2022-09-29T04:38:20;5.57;;;2.92;;
20251;SDS011;10284;58.364;15.550;2022-09-29T04:40:46;3.90;;;2.88;;
20251;SDS011;10284;58.364;15.550;2022-09-29T04:43:12;4.32;;;2.78;;
20251;SDS011;10284;58.364;15.550;2022-09-29T04:45:38;5.28;;;3.05;;
20251;SDS011;10284;58.364;15.550;2022-09-29T04:48:03;4.55;;;2.65;;
20251;SDS011;10284;58.364;15.550;2022-09-29T04:50:29;5.25;;;2.90;;
20251;SDS011;10284;58.364;15.550;2022-09-29T04:52:55;5.22;;;3.35;;
20251;SDS011;10284;58.364;15.550;2022-09-29T04:55:20;4.85;;;3.05;;
20251;SDS011;10284;58.364;15.550;2022-09-29T04:57:46;6.50;;;3.25;;
20251;SDS011;10284;58.364;15.550;2022-09-29T05:00:12;4.57;;;2.95;;
20251;SDS011;10284;58.364;15.550;2022-09-29T05:02:39;3.33;;;2.92;;
20251;SDS011;10284;58.364;15.550;2022-09-29T05:05:05;4.03;;;3.15;;
20251;SDS011;10284;58.364;15.550;2022-09-29T05:07:32;6.07;;;3.58;;
20251;SDS011;10284;58.364;15.550;2022-09-29T05:09:58;6.93;;;3.85;;
20251;SDS011;10284;58.364;15.550;2022-09-29T05:12:23;5.13;;;3.55;;
20251;SDS011;10284;58.364;15.550;2022-09-29T05:14:49;5.50;;;3.42;;
20251;SDS011;10284;58.364;15.550;2022-09-29T05:17:14;5.00;;;3.78;;
20251;SDS011;10284;58.364;15.550;2022-09-29T05:19:40;6.32;;;3.58;;
20251;SDS011;10284;58.364;15.550;2022-09-29T05:22:06;6.40;;;3.83;;
20251;SDS011;10284;58.364;15.550;2022-09-29T05:24:32;8.52;;;3.72;;
20251;SDS011;10284;58.364;15.550;2022-09-29T05:26:57;3.88;;;3.17;;
20251;SDS011;10284;58.364;15.550;2022-09-29T05:29:22;5.68;;;3.20;;
20251;SDS011;10284;58.364;15.550;2022-09-29T05:31:48;6.82;;;3.85;;
20251;SDS011;10284;58.364;15.550;2022-09-29T05:34:14;9.35;;;3.78;;
20251;SDS011;10284;58.364;15.550;2022-09-29T05:36:40;8.43;;;3.53;;
20251;SDS011;10284;58.364;15.550;2022-09-29T05:39:05;5.75;;;3.67;;
20251;SDS011;10284;58.364;15.550;2022-09-29T05:41:31;6.13;;;3.50;;
20251;SDS011;10284;58.364;15.550;2022-09-29T05:43:56;6.38;;;3.88;;
20251;SDS011;10284;58.364;15.550;2022-09-29T05:46:23;6.60;;;3.97;;
20251;SDS011;10284;58.364;15.550;2022-09-29T05:48:49;8.02;;;4.30;;
20251;SDS011;10284;58.364;15.550;2022-09-29T05:51:19;6.03;;;4.00;;
20251;SDS011;10284;58.364;15.550;2022-09-29T05:53:46;6.93;;;3.85;;
20251;SDS011;10284;58.364;15.550;2022-09-29T05:56:12;8.48;;;3.97;;
20251;SDS011;10284;58.364;15.550;2022-09-29T05:58:39;8.00;;;3.90;;
20251;SDS011;10284;58.364;15.550;2022-09-29T06:01:06;5.68;;;4.10;;
20251;SDS011;10284;58.364;15.550;2022-09-29T06:03:41;4.65;;;4.00;;
20251;SDS011;10284;58.364;15.550;2022-09-29T06:06:11;4.13;;;3.50;;
20251;SDS011;10284;58.364;15.550;2022-09-29T06:08:38;6.60;;;3.80;;
20251;SDS011;10284;58.364;15.550;2022-09-29T06:13:31;5.03;;;3.95;;
20251;SDS011;10284;58.364;15.550;2022-09-29T06:15:59;6.70;;;4.13;;
20251;SDS011;10284;58.364;15.550;2022-09-29T06:18:25;5.30;;;3.97;;
20251;SDS011;10284;58.364;15.550;2022-09-29T06:20:50;6.25;;;4.38;;
20251;SDS011;10284;58.364;15.550;2022-09-29T06:23:16;8.27;;;4.13;;
20251;SDS011;10284;58.364;15.550;2022-09-29T06:25:41;5.50;;;3.80;;
20251;SDS011;10284;58.364;15.550;2022-09-29T06:28:06;7.50;;;4.25;;
20251;SDS011;10284;58.364;15.550;2022-09-29T06:30:32;8.07;;;4.50;;
20251;SDS011;10284;58.364;15.550;2022-09-29T06:32:57;6.88;;;4.22;;
20251;SDS011;10284;58.364;15.550;2022-09-29T06:35:23;7.07;;;3.80;;
20251;SDS011;10284;58.364;15.550;2022-09-29T06:38:07;5.25;;;3.72;;
20251;SDS011;10284;58.364;15.550;2022-09-29T06:40:32;6.28;;;4.25;;
20251;SDS011;10284;58.364;15.550;2022-09-29T06:42:58;7.70;;;4.78;;
20251;SDS011;10284;58.364;15.550;2022-09-29T06:45:23;5.97;;;4.30;;
20251;SDS011;10284;58.364;15.550;2022-09-29T06:47:49;8.90;;;4.30;;
20251;SDS011;10284;58.364;15.550;2022-09-29T06:50:14;5.57;;;4.18;;
20251;SDS011;10284;58.364;15.550;2022-09-29T06:52:40;7.82;;;4.55;;
20251;SDS011;10284;58.364;15.550;2022-09-29T06:55:05;6.95;;;4.13;;
20251;SDS011;10284;58.364;15.550;2022-09-29T06:57:31;7.57;;;4.55;;
20251;SDS011;10284;58.364;15.550;2022-09-29T06:59:57;6.40;;;4.18;;
20251;SDS011;10284;58.364;15.550;2022-09-29T07:02:22;8.07;;;4.47;;
20251;SDS011;10284;58.364;15.550;2022-09-29T07:04:47;5.43;;;4.45;;
20251;SDS011;10284;58.364;15.550;2022-09-29T07:07:13;6.90;;;4.53;;
20251;SDS011;10284;58.364;15.550;2022-09-29T07:09:39;6.60;;;4.50;;
20251;SDS011;10284;58.364;15.550;2022-09-29T07:12:06;5.95;;;4.88;;
20251;SDS011;10284;58.364;15.550;2022-09-29T07:14:32;6.20;;;4.70;;
20251;SDS011;10284;58.364;15.550;2022-09-29T07:16:57;7.60;;;4.72;;
20251;SDS011;10284;58.364;15.550;2022-09-29T07:19:23;7.40;;;4.82;;
20251;SDS011;10284;58.364;15.550;2022-09-29T07:21:49;7.97;;;4.85;;
20251;SDS011;10284;58.364;15.550;2022-09-29T07:24:15;9.00;;;4.85;;
20251;SDS011;10284;58.364;15.550;2022-09-29T07:26:41;7.05;;;4.75;;
20251;SDS011;10284;58.364;15.550;2022-09-29T07:29:06;4.43;;;3.97;;
20251;SDS011;10284;58.364;15.550;2022-09-29T07:31:33;6.22;;;3.80;;
20251;SDS011;10284;58.364;15.550;2022-09-29T07:33:58;5.32;;;4.18;;
20251;SDS011;10284;58.364;15.550;2022-09-29T07:36:23;4.90;;;3.50;;
20251;SDS011;10284;58.364;15.550;2022-09-29T07:38:50;6.72;;;4.13;;
20251;SDS011;10284;58.364;15.550;2022-09-29T07:41:16;5.03;;;3.63;;
20251;SDS011;10284;58.364;15.550;2022-09-29T07:43:43;4.82;;;3.47;;
20251;SDS011;10284;58.364;15.550;2022-09-29T07:46:08;7.32;;;3.90;;
20251;SDS011;10284;58.364;15.550;2022-09-29T07:48:35;4.50;;;3.42;;
20251;SDS011;10284;58.364;15.550;2022-09-29T07:51:02;8.75;;;3.58;;
20251;SDS011;10284;58.364;15.550;2022-09-29T07:53:35;4.82;;;3.75;;
20251;SDS011;10284;58.364;15.550;2022-09-29T07:56:11;4.15;;;3.40;;
20251;SDS011;10284;58.364;15.550;2022-09-29T07:58:39;4.45;;;3.50;;
20251;SDS011;10284;58.364;15.550;2022-09-29T08:01:06;5.13;;;3.45;;
20251;SDS011;10284;58.364;15.550;2022-09-29T08:03:35;4.47;;;3.28;;
20251;SDS011;10284;58.364;15.550;2022-09-29T08:06:01;6.57;;;3.40;;
20251;SDS011;10284;58.364;15.550;2022-09-29T08:08:28;4.88;;;3.30;;
20251;SDS011;10284;58.364;15.550;2022-09-29T08:11:04;3.35;;;2.92;;
20251;SDS011;10284;58.364;15.550;2022-09-29T08:13:30;4.68;;;2.90;;
20251;SDS011;10284;58.364;15.550;2022-09-29T08:15:57;5.65;;;3.33;;
20251;SDS011;10284;58.364;15.550;2022-09-29T08:18:24;3.72;;;3.15;;
20251;SDS011;10284;58.364;15.550;2022-09-29T08:20:50;5.35;;;2.90;;
20251;SDS011;10284;58.364;15.550;2022-09-29T08:23:18;4.03;;;2.85;;
20251;SDS011;10284;58.364;15.550;2022-09-29T08:25:43;4.95;;;3.05;;
20251;SDS011;10284;58.364;15.550;2022-09-29T08:28:09;3.95;;;2.92;;
20251;SDS011;10284;58.364;15.550;2022-09-29T08:30:35;5.45;;;3.22;;
20251;SDS011;10284;58.364;15.550;2022-09-29T08:33:02;5.80;;;2.83;;
20251;SDS011;10284;58.364;15.550;2022-09-29T08:35:28;5.45;;;2.70;;
20251;SDS011;10284;58.364;15.550;2022-09-29T08:37:54;3.28;;;2.50;;
20251;SDS011;10284;58.364;15.550;2022-09-29T08:40:23;4.97;;;3.10;;
20251;SDS011;10284;58.364;15.550;2022-09-29T08:45:38;3.13;;;2.38;;
20251;SDS011;10284;58.364;15.550;2022-09-29T08:48:12;4.35;;;2.53;;
20251;SDS011;10284;58.364;15.550;2022-09-29T08:51:01;3.53;;;2.50;;
20251;SDS011;10284;58.364;15.550;2022-09-29T08:53:30;4.88;;;3.08;;
20251;SDS011;10284;58.364;15.550;2022-09-29T08:55:59;2.45;;;1.90;;
20251;SDS011;10284;58.364;15.550;2022-09-29T08:58:27;3.00;;;2.00;;
20251;SDS011;10284;58.364;15.550;2022-09-29T09:20:32;3.35;;;2.30;;
20251;SDS011;10284;58.364;15.550;2022-09-29T09:22:59;3.30;;;2.20;;
20251;SDS011;10284;58.364;15.550;2022-09-29T09:25:32;3.15;;;2.28;;
20251;SDS011;10284;58.364;15.550;2022-09-29T09:28:18;4.80;;;2.30;;
20251;SDS011;10284;58.364;15.550;2022-09-29T09:30:47;2.38;;;2.10;;
20251;SDS011;10284;58.364;15.550;2022-09-29T09:33:34;3.08;;;2.17;;
20251;SDS011;10284;58.364;15.550;2022-09-29T09:38:46;2.45;;;2.22;;
20251;SDS011;10284;58.364;15.550;2022-09-29T09:41:30;2.95;;;1.67;;
20251;SDS011;10284;58.364;15.550;2022-09-29T09:44:04;2.95;;;2.17;;
20251;SDS011;10284;58.364;15.550;2022-09-29T09:46:56;1.90;;;1.70;;
20251;SDS011;10284;58.364;15.550;2022-09-29T09:49:29;2.50;;;1.85;;
20251;SDS011;10284;58.364;15.550;2022-09-29T09:54:35;3.42;;;1.75;;
20251;SDS011;10284;58.364;15.550;2022-09-29T10:02:32;1.88;;;1.67;;
20251;SDS011;10284;58.364;15.550;2022-09-29T10:04:58;2.38;;;1.85;;
20251;SDS011;10284;58.364;15.550;2022-09-29T10:07:24;4.18;;;1.90;;
20251;SDS011;10284;58.364;15.550;2022-09-29T10:09:52;3.70;;;1.85;;
20251;SDS011;10284;58.364;15.550;2022-09-29T10:12:18;2.15;;;1.80;;
20251;SDS011;10284;58.364;15.550;2022-09-29T10:15:32;1.70;;;1.60;;
20251;SDS011;10284;58.364;15.550;2022-09-29T10:17:48;2.80;;;1.23;;
20251;SDS011;10284;58.364;15.550;2022-09-29T10:20:27;1.90;;;1.38;;
20251;SDS011;10284;58.364;15.550;2022-09-29T10:23:02;5.25;;;1.48;;
20251;SDS011;10284;58.364;15.550;2022-09-29T10:26:37;1.83;;;1.43;;
20251;SDS011;10284;58.364;15.550;2022-09-29T10:31:17;2.10;;;1.80;;
20251;SDS011;10284;58.364;15.550;2022-09-29T10:33:49;1.52;;;1.42;;
20251;SDS011;10284;58.364;15.550;2022-09-29T10:36:16;1.83;;;1.63;;
20251;SDS011;10284;58.364;15.550;2022-09-29T10:38:47;2.78;;;1.65;;
20251;SDS011;10284;58.364;15.550;2022-09-29T10:41:14;3.28;;;1.70;;
20251;SDS011;10284;58.364;15.550;2022-09-29T10:43:41;1.92;;;1.33;;
20251;SDS011;10284;58.364;15.550;2022-09-29T10:49:35;1.75;;;1.60;;
20251;SDS011;10284;58.364;15.550;2022-09-29T10:54:28;2.20;;;1.70;;
20251;SDS011;10284;58.364;15.550;2022-09-29T10:56:56;1.70;;;1.60;;
20251;SDS011;10284;58.364;15.550;2022-09-29T10:59:23;2.95;;;2.00;;
20251;SDS011;10284;58.364;15.550;2022-09-29T11:01:50;2.35;;;1.77;;
20251;SDS011;10284;58.364;15.550;2022-09-29T11:06:54;2.60;;;1.83;;
20251;SDS011;10284;58.364;15.550;2022-09-29T11:16:55;2.10;;;1.77;;
20251;SDS011;10284;58.364;15.550;2022-09-29T11:19:22;1.77;;;1.67;;
20251;SDS011;10284;58.364;15.550;2022-09-29T11:29:34;3.10;;;1.80;;
20251;SDS011;10284;58.364;15.550;2022-09-29T11:35:26;4.18;;;1.63;;
20251;SDS011;10284;58.364;15.550;2022-09-29T11:38:05;3.00;;;1.58;;
20251;SDS011;10284;58.364;15.550;2022-09-29T11:57:35;1.45;;;1.35;;
20251;SDS011;10284;58.364;15.550;2022-09-29T12:00:09;1.55;;;1.45;;
20251;SDS011;10284;58.364;15.550;2022-09-29T12:13:37;1.45;;;1.35;;
20251;SDS011;10284;58.364;15.550;2022-09-29T12:16:19;1.98;;;1.50;;
20251;SDS011;10284;58.364;15.550;2022-09-29T12:21:39;1.73;;;1.55;;
20251;SDS011;10284;58.364;15.550;2022-09-29T12:24:09;1.48;;;1.38;;
20251;SDS011;10284;58.364;15.550;2022-09-29T12:26:39;3.80;;;1.30;;
20251;SDS011;10284;58.364;15.550;2022-09-29T12:29:06;2.45;;;1.40;;
20251;SDS011;10284;58.364;15.550;2022-09-29T12:31:46;2.50;;;1.33;;
20251;SDS011;10284;58.364;15.550;2022-09-29T12:34:14;1.75;;;1.55;;
20251;SDS011;10284;58.364;15.550;2022-09-29T12:36:56;1.30;;;1.20;;
20251;SDS011;10284;58.364;15.550;2022-09-29T12:39:40;4.07;;;1.40;;
20251;SDS011;10284;58.364;15.550;2022-09-29T12:42:31;2.00;;;1.23;;
20251;SDS011;10284;58.364;15.550;2022-09-29T12:48:00;1.73;;;1.40;;
20251;SDS011;10284;58.364;15.550;2022-09-29T12:50:47;3.00;;;1.50;;
20251;SDS011;10284;58.364;15.550;2022-09-29T12:53:33;4.00;;;1.42;;
20251;SDS011;10284;58.364;15.550;2022-09-29T12:56:01;1.50;;;1.38;;
20251;SDS011;10284;58.364;15.550;2022-09-29T12:58:49;2.75;;;1.50;;
20251;SDS011;10284;58.364;15.550;2022-09-29T13:01:24;1.67;;;1.17;;
20251;SDS011;10284;58.364;15.550;2022-09-29T13:06:23;1.77;;;1.13;;
20251;SDS011;10284;58.364;15.550;2022-09-29T13:09:34;1.50;;;1.23;;
20251;SDS011;10284;58.364;15.550;2022-09-29T13:25:35;4.63;;;1.23;;
20251;SDS011;10284;58.364;15.550;2022-09-29T13:28:11;2.03;;;1.38;;
20251;SDS011;10284;58.364;15.550;2022-09-29T13:30:46;3.72;;;1.30;;
20251;SDS011;10284;58.364;15.550;2022-09-29T13:33:21;1.23;;;1.13;;
20251;SDS011;10284;58.364;15.550;2022-09-29T13:35:48;2.55;;;1.38;;
20251;SDS011;10284;58.364;15.550;2022-09-29T13:38:16;1.48;;;1.23;;
20251;SDS011;10284;58.364;15.550;2022-09-29T13:43:37;1.10;;;1.10;;
20251;SDS011;10284;58.364;15.550;2022-09-29T13:48:53;3.72;;;1.20;;
20251;SDS011;10284;58.364;15.550;2022-09-29T13:57:00;2.08;;;1.30;;
20251;SDS011;10284;58.364;15.550;2022-09-29T13:59:28;2.08;;;1.20;;
20251;SDS011;10284;58.364;15.550;2022-09-29T14:01:53;2.65;;;1.27;;
20251;SDS011;10284;58.364;15.550;2022-09-29T14:04:32;2.08;;;1.25;;
20251;SDS011;10284;58.364;15.550;2022-09-29T14:07:38;2.58;;;1.20;;
20251;SDS011;10284;58.364;15.550;2022-09-29T14:10:23;1.33;;;1.10;;
20251;SDS011;10284;58.364;15.550;2022-09-29T14:12:58;1.23;;;1.10;;
20251;SDS011;10284;58.364;15.550;2022-09-29T14:15:28;1.10;;;1.00;;
20251;SDS011;10284;58.364;15.550;2022-09-29T14:17:59;1.52;;;1.42;;
20251;SDS011;10284;58.364;15.550;2022-09-29T14:20:28;2.05;;;1.30;;
20251;SDS011;10284;58.364;15.550;2022-09-29T14:23:03;2.00;;;1.20;;
20251;SDS011;10284;58.364;15.550;2022-09-29T14:28:24;1.92;;;0.93;;
20251;SDS011;10284;58.364;15.550;2022-09-29T14:30:55;1.20;;;1.10;;
20251;SDS011;10284;58.364;15.550;2022-09-29T14:33:23;1.42;;;1.05;;
20251;SDS011;10284;58.364;15.550;2022-09-29T14:38:41;0.95;;;0.95;;
20251;SDS011;10284;58.364;15.550;2022-09-29T14:46:14;1.23;;;1.13;;
20251;SDS011;10284;58.364;15.550;2022-09-29T14:49:18;1.80;;;1.10;;
20251;SDS011;10284;58.364;15.550;2022-09-29T15:01:27;1.20;;;1.10;;
20251;SDS011;10284;58.364;15.550;2022-09-29T15:04:09;0.80;;;0.80;;
20251;SDS011;10284;58.364;15.550;2022-09-29T15:06:44;0.80;;;0.80;;
20251;SDS011;10284;58.364;15.550;2022-09-29T15:09:23;1.17;;;1.08;;
20251;SDS011;10284;58.364;15.550;2022-09-29T15:11:56;1.10;;;1.00;;
20251;SDS011;10284;58.364;15.550;2022-09-29T15:17:12;1.48;;;1.20;;
20251;SDS011;10284;58.364;15.550;2022-09-29T15:20:30;3.45;;;1.40;;
20251;SDS011;10284;58.364;15.550;2022-09-29T15:28:05;1.20;;;1.10;;
20251;SDS011;10284;58.364;15.550;2022-09-29T15:30:36;1.30;;;1.20;;
20251;SDS011;10284;58.364;15.550;2022-09-29T15:33:08;1.30;;;1.20;;
20251;SDS011;10284;58.364;15.550;2022-09-29T15:35:43;1.45;;;1.20;;
20251;SDS011;10284;58.364;15.550;2022-09-29T15:40:37;3.92;;;1.20;;
20251;SDS011;10284;58.364;15.550;2022-09-29T15:43:02;2.17;;;1.25;;
20251;SDS011;10284;58.364;15.550;2022-09-29T15:45:28;3.63;;;1.63;;
20251;SDS011;10284;58.364;15.550;2022-09-29T15:47:59;1.63;;;1.17;;
20251;SDS011;10284;58.364;15.550;2022-09-29T15:50:26;4.85;;;1.20;;
20251;SDS011;10284;58.364;15.550;2022-09-29T15:52:56;1.42;;;1.10;;
20251;SDS011;10284;58.364;15.550;2022-09-29T15:55:25;1.42;;;1.13;;
20251;SDS011;10284;58.364;15.550;2022-09-29T15:57:51;2.55;;;1.17;;
20251;SDS011;10284;58.364;15.550;2022-09-29T16:05:31;1.95;;;1.20;;
20251;SDS011;10284;58.364;15.550;2022-09-29T16:08:02;1.33;;;1.10;;
20251;SDS011;10284;58.364;15.550;2022-09-29T16:10:31;1.48;;;1.20;;
20251;SDS011;10284;58.364;15.550;2022-09-29T16:13:05;2.58;;;1.15;;
20251;SDS011;10284;58.364;15.550;2022-09-29T16:15:50;1.50;;;1.23;;
20251;SDS011;10284;58.364;15.550;2022-09-29T16:18:20;1.20;;;1.10;;
20251;SDS011;10284;58.364;15.550;2022-09-29T16:20:48;4.88;;;1.45;;
20251;SDS011;10284;58.364;15.550;2022-09-29T16:28:37;1.50;;;1.40;;
20251;SDS011;10284;58.364;15.550;2022-09-29T16:31:04;2.08;;;1.60;;
20251;SDS011;10284;58.364;15.550;2022-09-29T16:33:35;1.65;;;1.55;;
20251;SDS011;10284;58.364;15.550;2022-09-29T16:36:06;3.72;;;1.52;;
20251;SDS011;10284;58.364;15.550;2022-09-29T16:38:54;1.50;;;1.40;;
20251;SDS011;10284;58.364;15.550;2022-09-29T16:44:05;1.85;;;1.40;;
20251;SDS011;10284;58.364;15.550;2022-09-29T16:49:22;1.80;;;1.60;;
20251;SDS011;10284;58.364;15.550;2022-09-29T16:52:00;2.70;;;1.92;;
20251;SDS011;10284;58.364;15.550;2022-09-29T16:54:31;2.35;;;1.60;;
20251;SDS011;10284;58.364;15.550;2022-09-29T16:59:59;3.05;;;1.90;;
20251;SDS011;10284;58.364;15.550;2022-09-29T17:02:28;5.38;;;1.42;;
20251;SDS011;10284;58.364;15.550;2022-09-29T17:04:54;1.80;;;1.70;;
20251;SDS011;10284;58.364;15.550;2022-09-29T17:07:21;2.13;;;1.70;;
20251;SDS011;10284;58.364;15.550;2022-09-29T17:09:51;3.80;;;1.50;;
20251;SDS011;10284;58.364;15.550;2022-09-29T17:12:19;2.90;;;1.70;;
20251;SDS011;10284;58.364;15.550;2022-09-29T17:14:44;1.67;;;1.45;;
20251;SDS011;10284;58.364;15.550;2022-09-29T17:17:19;1.98;;;1.65;;
20251;SDS011;10284;58.364;15.550;2022-09-29T17:19:46;4.20;;;1.60;;
20251;SDS011;10284;58.364;15.550;2022-09-29T17:22:31;5.07;;;2.30;;
20251;SDS011;10284;58.364;15.550;2022-09-29T17:25:03;3.03;;;1.73;;
20251;SDS011;10284;58.364;15.550;2022-09-29T17:27:29;2.38;;;1.70;;
20251;SDS011;10284;58.364;15.550;2022-09-29T17:30:15;1.67;;;1.55;;
20251;SDS011;10284;58.364;15.550;2022-09-29T17:32:44;2.17;;;1.70;;
20251;SDS011;10284;58.364;15.550;2022-09-29T17:35:11;2.42;;;1.80;;
20251;SDS011;10284;58.364;15.550;2022-09-29T17:37:38;4.43;;;1.70;;
20251;SDS011;10284;58.364;15.550;2022-09-29T17:40:47;2.70;;;1.80;;
20251;SDS011;10284;58.364;15.550;2022-09-29T17:42:55;1.77;;;1.63;;
20251;SDS011;10284;58.364;15.550;2022-09-29T17:45:23;4.80;;;1.80;;
20251;SDS011;10284;58.364;15.550;2022-09-29T17:47:49;2.80;;;1.77;;
20251;SDS011;10284;58.364;15.550;2022-09-29T17:52:52;2.97;;;1.85;;
20251;SDS011;10284;58.364;15.550;2022-09-29T17:55:18;3.58;;;1.77;;
20251;SDS011;10284;58.364;15.550;2022-09-29T17:57:47;3.67;;;1.75;;
20251;SDS011;10284;58.364;15.550;2022-09-29T18:03:13;2.05;;;1.85;;
20251;SDS011;10284;58.364;15.550;2022-09-29T18:05:41;2.50;;;2.05;;
20251;SDS011;10284;58.364;15.550;2022-09-29T18:08:15;3.50;;;1.80;;
20251;SDS011;10284;58.364;15.550;2022-09-29T18:10:42;2.78;;;2.17;;
20251;SDS011;10284;58.364;15.550;2022-09-29T18:13:09;5.68;;;2.08;;
20251;SDS011;10284;58.364;15.550;2022-09-29T18:15:36;2.20;;;2.00;;
20251;SDS011;10284;58.364;15.550;2022-09-29T18:18:03;3.50;;;1.55;;